createdAt,value
2019-01-23T00:00:00.393Z,999.7
2019-01-23T00:05:00.303Z,999.7
2019-01-23T00:09:59.995Z,999.6
2019-01-23T00:15:00.205Z,999.5
2019-01-23T00:20:07.904Z,999.3
2019-01-23T00:25:00.396Z,999.3
2019-01-23T00:30:00.337Z,999.2
2019-01-23T00:35:01.470Z,999.1
2019-01-23T00:40:00.285Z,999.1
2019-01-23T00:45:00.041Z,999.1
2019-01-23T00:50:00.010Z,999.1
2019-01-23T00:55:00.269Z,999
2019-01-23T01:00:00.112Z,999
2019-01-23T01:05:00.024Z,999
2019-01-23T01:10:00.294Z,999
2019-01-23T01:15:00.275Z,999
2019-01-23T01:20:00.134Z,999
2019-01-23T01:25:00.044Z,999
2019-01-23T01:29:59.953Z,999
2019-01-23T01:35:00.000Z,999.1
2019-01-23T01:40:00.284Z,999.1
2019-01-23T01:44:59.871Z,999.1
2019-01-23T01:50:00.204Z,999
2019-01-23T01:55:00.257Z,999
2019-01-23T02:00:00.026Z,999
2019-01-23T02:05:00.019Z,999
2019-01-23T02:09:59.836Z,998.8
2019-01-23T02:15:00.004Z,998.8
2019-01-23T02:19:59.834Z,998.8
2019-01-23T02:25:00.228Z,998.8
2019-01-23T02:30:00.041Z,998.8
2019-01-23T02:35:00.061Z,998.7
2019-01-23T02:40:00.269Z,998.7
2019-01-23T02:44:59.788Z,998.6
2019-01-23T02:50:00.156Z,998.6
2019-01-23T02:54:59.881Z,998.5
2019-01-23T02:59:59.996Z,998.4
2019-01-23T03:04:59.775Z,998.4
2019-01-23T03:10:00.033Z,998.4
2019-01-23T03:15:00.037Z,998.3
2019-01-23T03:20:00.068Z,998.2
2019-01-23T03:24:59.940Z,998.2
2019-01-23T03:29:59.841Z,998.3
2019-01-23T03:34:59.942Z,998.3
2019-01-23T03:39:59.879Z,998.3
2019-01-23T03:45:00.133Z,998.3
2019-01-23T03:50:00.477Z,998.3
2019-01-23T03:55:00.366Z,998.3
2019-01-23T04:00:00.049Z,998.4
2019-01-23T04:04:59.699Z,998.4
2019-01-23T04:09:59.887Z,998.4
2019-01-23T04:14:59.869Z,998.4
2019-01-23T04:19:59.726Z,998.5
2019-01-23T04:24:59.827Z,998.5
2019-01-23T04:29:59.985Z,998.5
2019-01-23T04:34:59.888Z,998.5
2019-01-23T04:39:59.743Z,998.5
2019-01-23T04:44:59.838Z,998.5
2019-01-23T04:49:59.773Z,998.5
2019-01-23T04:54:59.840Z,998.5
2019-01-23T05:00:00.108Z,998.6
2019-01-23T05:04:59.940Z,998.6
2019-01-23T05:09:59.759Z,998.6
2019-01-23T05:14:59.791Z,998.6
2019-01-23T05:19:59.589Z,998.6
2019-01-23T05:24:59.686Z,998.6
2019-01-23T05:29:59.621Z,998.6
2019-01-23T05:34:59.684Z,998.6
2019-01-23T05:39:59.687Z,998.6
2019-01-23T05:44:59.855Z,998.6
2019-01-23T05:49:59.885Z,998.6
2019-01-23T05:54:59.830Z,998.6
2019-01-23T06:00:02.599Z,998.7
2019-01-23T06:04:59.488Z,998.8
2019-01-23T06:09:59.828Z,998.9
2019-01-23T06:14:59.546Z,998.9
2019-01-23T06:19:59.652Z,998.9
2019-01-23T06:24:59.632Z,998.9
2019-01-23T06:29:59.802Z,999
2019-01-23T06:34:59.447Z,999
2019-01-23T06:39:59.741Z,999
2019-01-23T06:44:59.825Z,999.1
2019-01-23T06:49:59.668Z,999.1
2019-01-23T06:54:59.475Z,999.1
2019-01-23T06:59:59.765Z,999.1
2019-01-23T07:04:59.605Z,999.2
2019-01-23T07:09:59.443Z,999.2
2019-01-23T07:14:59.674Z,999.3
2019-01-23T07:19:59.481Z,999.3
2019-01-23T07:24:59.509Z,999.3
2019-01-23T07:29:59.390Z,999.4
2019-01-23T07:34:59.412Z,999.4
2019-01-23T07:39:59.628Z,999.4
2019-01-23T07:44:59.749Z,999.4
2019-01-23T07:49:59.615Z,999.4
2019-01-23T07:54:59.687Z,999.5
2019-01-23T07:59:59.713Z,999.5
2019-01-23T08:04:59.315Z,999.6
2019-01-23T08:09:59.580Z,999.7
2019-01-23T08:14:59.324Z,999.7
2019-01-23T08:19:59.668Z,999.7
2019-01-23T08:24:59.617Z,999.8
2019-01-23T08:29:59.537Z,999.8
2019-01-23T08:34:59.417Z,999.9
2019-01-23T08:39:59.293Z,999.9
2019-01-23T08:44:59.497Z,999.9
2019-01-23T08:49:59.354Z,999.9
2019-01-23T08:54:59.408Z,1000
2019-01-23T08:59:59.447Z,1000
2019-01-23T09:04:59.508Z,1000.1
2019-01-23T09:09:59.455Z,1000.2
2019-01-23T09:14:59.485Z,1000.2
2019-01-23T09:19:59.326Z,1000.3
2019-01-23T09:24:59.245Z,1000.3
2019-01-23T09:29:59.283Z,1000.4
2019-01-23T09:34:59.319Z,1000.5
2019-01-23T09:39:59.264Z,1000.5
2019-01-23T09:44:59.434Z,1000.6
2019-01-23T09:49:59.215Z,1000.6
2019-01-23T09:54:59.324Z,1000.7
2019-01-23T09:59:59.346Z,1000.7
2019-01-23T10:04:59.293Z,1000.7
2019-01-23T10:09:59.355Z,1000.8
2019-01-23T10:14:59.289Z,1000.9
2019-01-23T10:19:59.249Z,1000.9
2019-01-23T10:24:59.230Z,1001
2019-01-23T10:29:59.442Z,1001
2019-01-23T10:34:59.267Z,1001.1
2019-01-23T10:39:59.171Z,1001.1
2019-01-23T10:44:59.509Z,1001.1
2019-01-23T10:49:59.291Z,1001.1
2019-01-23T10:54:59.275Z,1001.2
2019-01-23T10:59:59.261Z,1001.2
2019-01-23T11:04:59.156Z,1001.3
2019-01-23T11:09:59.408Z,1001.3
2019-01-23T11:14:59.468Z,1001.2
2019-01-23T11:19:59.382Z,1001.3
2019-01-23T11:24:59.005Z,1001.3
2019-01-23T11:29:59.225Z,1001.4
2019-01-23T11:34:59.307Z,1001.4
2019-01-23T11:39:59.232Z,1001.4
2019-01-23T11:44:59.327Z,1001.5
2019-01-23T11:49:59.155Z,1001.5
2019-01-23T11:54:59.123Z,1001.5
2019-01-23T11:59:59.207Z,1001.6
2019-01-23T12:04:59.072Z,1001.6
2019-01-23T12:09:59.346Z,1001.6
2019-01-23T12:14:59.071Z,1001.6
2019-01-23T12:19:59.340Z,1001.6
2019-01-23T12:24:59.219Z,1001.7
2019-01-23T12:29:59.289Z,1001.7
2019-01-23T12:35:00.420Z,1001.7
2019-01-23T12:39:59.182Z,1001.8
2019-01-23T12:44:59.335Z,1001.9
2019-01-23T12:49:59.121Z,1001.9
2019-01-23T12:54:59.258Z,1001.9
2019-01-23T13:00:05.070Z,1002
2019-01-23T13:04:59.170Z,1002
2019-01-23T13:09:59.175Z,1002
2019-01-23T13:14:58.974Z,1002
2019-01-23T13:19:59.073Z,1002
2019-01-23T13:24:59.042Z,1002
2019-01-23T13:29:58.927Z,1002
2019-01-23T13:34:59.121Z,1002.1
2019-01-23T13:39:58.876Z,1002.1
2019-01-23T13:44:59.151Z,1002.2
2019-01-23T13:49:59.326Z,1002.3
2019-01-23T13:54:59.153Z,1002.4
2019-01-23T13:59:59.806Z,1002.4
2019-01-23T14:04:58.806Z,1002.5
2019-01-23T14:09:58.816Z,1002.5
2019-01-23T14:14:59.174Z,1002.6
2019-01-23T14:19:58.957Z,1002.6
2019-01-23T14:24:59.011Z,1002.7
2019-01-23T14:29:59.031Z,1002.7
2019-01-23T14:34:59.167Z,1002.8
2019-01-23T14:39:59.102Z,1002.8
2019-01-23T14:44:58.949Z,1002.8
2019-01-23T14:49:59.053Z,1002.8
2019-01-23T14:54:59.107Z,1002.8
2019-01-23T14:59:59.086Z,1002.8
2019-01-23T15:04:59.001Z,1002.9
2019-01-23T15:09:58.916Z,1002.9
2019-01-23T15:14:59.053Z,1003
2019-01-23T15:19:58.907Z,1003.1
2019-01-23T15:24:58.711Z,1003.1
2019-01-23T15:29:58.845Z,1003.2
2019-01-23T15:34:59.025Z,1003.3
2019-01-23T15:39:58.995Z,1003.4
2019-01-23T15:44:58.783Z,1003.5
2019-01-23T15:49:58.792Z,1003.6
2019-01-23T15:54:58.959Z,1003.7
2019-01-23T15:59:58.981Z,1003.8
2019-01-23T16:04:59.002Z,1003.9
2019-01-23T16:09:58.881Z,1004
2019-01-23T16:14:58.852Z,1004
2019-01-23T16:19:58.731Z,1004
2019-01-23T16:24:58.868Z,1004
2019-01-23T16:29:58.854Z,1004.1
2019-01-23T16:34:58.912Z,1004.3
2019-01-23T16:39:58.828Z,1004.3
2019-01-23T16:44:58.689Z,1004.4
2019-01-23T16:49:58.699Z,1004.4
2019-01-23T16:54:58.933Z,1004.5
2019-01-23T16:59:58.702Z,1004.6
2019-01-23T17:04:58.845Z,1004.6
2019-01-23T17:09:58.647Z,1004.8
2019-01-23T17:14:59.014Z,1004.8
2019-01-23T17:19:59.208Z,1004.8
2019-01-23T17:24:58.842Z,1004.9
2019-01-23T17:29:58.876Z,1005
2019-01-23T17:34:59.390Z,1005
2019-01-23T17:39:58.728Z,1005
2019-01-23T17:44:58.826Z,1005.1
2019-01-23T17:49:58.738Z,1005.1
2019-01-23T17:54:58.575Z,1005.2
2019-01-23T17:59:58.837Z,1005.2
2019-01-23T18:04:58.577Z,1005.2
2019-01-23T18:09:58.695Z,1005.2
2019-01-23T18:14:58.908Z,1005.3
2019-01-23T18:19:58.803Z,1005.4
2019-01-23T18:24:58.474Z,1005.4
2019-01-23T18:29:58.851Z,1005.5
2019-01-23T18:34:58.442Z,1005.5
2019-01-23T18:39:58.742Z,1005.5
2019-01-23T18:44:58.567Z,1005.5
2019-01-23T18:49:58.768Z,1005.6
2019-01-23T18:54:58.733Z,1005.7
2019-01-23T18:59:59.376Z,1005.7
2019-01-23T19:04:58.507Z,1005.7
2019-01-23T19:09:58.402Z,1005.8
2019-01-23T19:14:58.497Z,1005.8
2019-01-23T19:19:58.382Z,1005.8
2019-01-23T19:24:58.377Z,1005.9
2019-01-23T19:29:58.777Z,1005.9
2019-01-23T19:34:58.369Z,1005.9
2019-01-23T19:39:58.378Z,1006
2019-01-23T19:44:58.720Z,1006
2019-01-23T19:49:58.650Z,1006
2019-01-23T19:54:58.418Z,1006.1
2019-01-23T19:59:58.682Z,1006.1
2019-01-23T20:04:58.422Z,1006.1
2019-01-23T20:09:58.456Z,1006.2
2019-01-23T20:14:58.537Z,1006.2
2019-01-23T20:19:58.345Z,1006.2
2019-01-23T20:24:59.091Z,1006.2
2019-01-23T20:29:58.589Z,1006.2
2019-01-23T20:34:58.607Z,1006.2
2019-01-23T20:39:58.392Z,1006.3
2019-01-23T20:44:58.570Z,1006.4
2019-01-23T20:49:58.530Z,1006.5
2019-01-23T20:54:58.563Z,1006.5
2019-01-23T20:59:58.379Z,1006.6
2019-01-23T21:04:58.230Z,1006.6
2019-01-23T21:09:58.584Z,1006.7
2019-01-23T21:14:58.474Z,1006.7
2019-01-23T21:19:58.305Z,1006.7
2019-01-23T21:24:58.273Z,1006.8
2019-01-23T21:29:58.261Z,1006.9
2019-01-23T21:34:58.334Z,1007
2019-01-23T21:39:58.199Z,1007
2019-01-23T21:44:58.280Z,1007
2019-01-23T21:49:58.232Z,1007.1
2019-01-23T21:54:58.328Z,1007.2
2019-01-23T21:59:58.372Z,1007.2
2019-01-23T22:04:58.301Z,1007.3
2019-01-23T22:09:58.320Z,1007.3
2019-01-23T22:14:58.362Z,1007.4
2019-01-23T22:19:58.362Z,1007.4
2019-01-23T22:24:58.367Z,1007.5
2019-01-23T22:29:58.330Z,1007.6
2019-01-23T22:34:58.299Z,1007.6
2019-01-23T22:39:58.188Z,1007.6
2019-01-23T22:44:58.089Z,1007.6
2019-01-23T22:49:58.443Z,1007.7
2019-01-23T22:54:58.112Z,1007.7
2019-01-23T22:59:58.142Z,1007.8
2019-01-23T23:04:58.943Z,1007.8
2019-01-23T23:09:58.192Z,1007.9
2019-01-23T23:14:58.121Z,1008
2019-01-23T23:19:58.155Z,1008
2019-01-23T23:24:58.384Z,1008.1
2019-01-23T23:29:58.383Z,1008.1
2019-01-23T23:34:58.021Z,1008.1
2019-01-23T23:39:58.006Z,1008.2
2019-01-23T23:44:58.189Z,1008.2
2019-01-23T23:49:58.161Z,1008.2
2019-01-23T23:54:58.340Z,1008.2
2019-01-23T23:59:58.345Z,1008.3
